Time;durP1;ratioP1;P1;durP2;ratioP2;P2;SDS_P1;SDS_P2;PMS_P1;PMS_P2;Temp;Humidity;BMP_temperature;BMP_pressure;BME280_temperature;BME280_humidity;BME280_pressure;Samples;Min_cycle;Max_cycle;Signal;HPM_P1;HPM_P2
2022/07/25 00:00:10;;;;;;;13.98;9.70;;;19.40;99.90;;;;;;5050255;28;20157;-64
2022/07/25 00:02:37;;;;;;;14.25;9.85;;;19.30;99.90;;;;;;5045370;28;20059;-64
2022/07/25 00:05:04;;;;;;;15.40;10.52;;;19.40;99.90;;;;;;5048619;28;20041;-64
2022/07/25 00:07:31;;;;;;;14.48;10.05;;;19.30;99.90;;;;;;5045331;28;20053;-64
2022/07/25 00:09:58;;;;;;;15.57;10.65;;;19.30;99.90;;;;;;5051336;28;20041;-64
2022/07/25 00:12:25;;;;;;;13.88;10.07;;;19.30;99.90;;;;;;5042006;28;20042;-64
2022/07/25 00:14:51;;;;;;;14.32;9.60;;;19.20;99.90;;;;;;5050905;28;20057;-65
2022/07/25 00:17:18;;;;;;;14.55;10.73;;;19.20;99.90;;;;;;5052735;28;20045;-64
2022/07/25 00:19:45;;;;;;;16.35;10.07;;;19.20;99.90;;;;;;5048029;28;20057;-64
2022/07/25 00:22:12;;;;;;;14.23;10.15;;;19.10;99.90;;;;;;5025872;28;20405;-64
2022/07/25 00:24:39;;;;;;;13.38;10.02;;;19.10;99.90;;;;;;5052280;28;20064;-64
2022/07/25 00:27:07;;;;;;;13.98;9.77;;;19.00;99.90;;;;;;5051984;28;20067;-65
2022/07/25 00:29:34;;;;;;;13.80;10.63;;;19.00;99.90;;;;;;5040507;28;20042;-64
2022/07/25 00:32:01;;;;;;;;;;;19.00;99.90;;;;;;5052098;28;20064;-64
2022/07/25 00:34:28;;;;;;;13.52;10.27;;;19.00;99.90;;;;;;5052097;28;19979;-64
2022/07/25 00:36:55;;;;;;;13.90;10.35;;;18.90;99.90;;;;;;5042710;28;20440;-64
2022/07/25 00:39:21;;;;;;;14.30;10.45;;;18.90;99.90;;;;;;5046223;28;20048;-65
2022/07/25 00:41:49;;;;;;;15.95;11.13;;;18.90;99.90;;;;;;5051748;28;20041;-64
2022/07/25 00:44:27;;;;;;;13.35;10.05;;;18.90;99.90;;;;;;5033657;28;20060;-65
2022/07/25 00:46:55;;;;;;;16.90;10.90;;;18.80;99.90;;;;;;5043680;28;20049;-65
2022/07/25 00:49:23;;;;;;;12.98;9.85;;;18.80;99.90;;;;;;5051908;28;20106;-65
2022/07/25 00:51:51;;;;;;;16.50;10.90;;;18.80;99.90;;;;;;5048925;28;20046;-64
2022/07/25 00:54:19;;;;;;;14.82;10.90;;;18.70;99.90;;;;;;5043713;28;20048;-64
2022/07/25 00:56:46;;;;;;;;;;;18.70;99.90;;;;;;5052560;28;20409;-64
2022/07/25 00:59:13;;;;;;;14.75;10.57;;;18.70;99.90;;;;;;5051781;28;20373;-64
2022/07/25 01:01:41;;;;;;;14.55;9.95;;;18.70;99.90;;;;;;5043763;28;20045;-64
2022/07/25 01:04:08;;;;;;;15.63;10.15;;;18.70;99.90;;;;;;5043397;28;20045;-65
2022/07/25 01:06:35;;;;;;;14.65;10.48;;;18.70;99.90;;;;;;5051948;28;20049;-64
2022/07/25 01:09:02;;;;;;;15.90;10.90;;;18.70;99.90;;;;;;5051418;28;20041;-64
2022/07/25 01:11:29;;;;;;;16.92;10.38;;;18.70;99.90;;;;;;5043439;28;20041;-64
2022/07/25 01:13:56;;;;;;;16.88;10.63;;;18.70;99.90;;;;;;5050317;28;20520;-64
2022/07/25 01:16:23;;;;;;;14.93;11.10;;;18.70;99.90;;;;;;5051728;28;20041;-64
2022/07/25 01:18:49;;;;;;;16.92;11.48;;;18.60;99.90;;;;;;5047124;28;20069;-64
2022/07/25 01:21:16;;;;;;;18.02;11.27;;;18.60;99.90;;;;;;5044670;28;20041;-64
2022/07/25 01:23:43;;;;;;;15.35;11.35;;;18.60;99.90;;;;;;5051567;28;20064;-64
2022/07/25 01:26:10;;;;;;;16.75;12.20;;;18.60;99.90;;;;;;5047699;28;20044;-64
2022/07/25 01:28:36;;;;;;;16.23;10.80;;;18.60;99.90;;;;;;5043214;28;20041;-64
2022/07/25 01:31:03;;;;;;;15.40;11.60;;;18.60;99.90;;;;;;5051168;28;20063;-64
2022/07/25 01:33:30;;;;;;;20.52;11.43;;;18.60;99.90;;;;;;5051535;28;20041;-64
2022/07/25 01:35:57;;;;;;;14.13;10.15;;;18.60;99.90;;;;;;5028774;28;20041;-64
2022/07/25 01:38:24;;;;;;;19.10;11.10;;;18.60;99.90;;;;;;5043140;28;20036;-64
2022/07/25 01:40:51;;;;;;;15.00;10.35;;;18.50;99.90;;;;;;5050864;28;20060;-64
2022/07/25 01:43:17;;;;;;;15.57;10.73;;;18.40;99.90;;;;;;5051127;28;20508;-64
2022/07/25 01:45:44;;;;;;;15.77;10.88;;;18.20;99.90;;;;;;5040180;28;20037;-64
2022/07/25 01:48:11;;;;;;;14.63;10.82;;;18.20;99.90;;;;;;5051399;28;20058;-64
2022/07/25 01:50:38;;;;;;;16.90;10.80;;;18.20;99.90;;;;;;5050722;28;20041;-64
2022/07/25 01:53:05;;;;;;;14.82;11.18;;;18.10;99.90;;;;;;5050857;28;20041;-64
2022/07/25 01:55:31;;;;;;;15.50;11.10;;;18.20;99.90;;;;;;5042879;28;20045;-65
2022/07/25 01:57:58;;;;;;;14.43;10.05;;;18.10;99.90;;;;;;5051204;28;20061;-64
2022/07/25 02:00:25;;;;;;;18.83;11.18;;;18.00;99.90;;;;;;5050642;28;20404;-64
2022/07/25 02:05:37;;;;;;;19.85;10.60;;;17.90;99.90;;;;;;5047336;28;20033;-64
2022/07/25 02:08:04;;;;;;;15.27;10.93;;;17.90;99.90;;;;;;5051013;28;20124;-64
2022/07/25 02:10:31;;;;;;;15.45;11.00;;;17.90;99.90;;;;;;5050819;28;20060;-64
2022/07/25 02:13:00;;;;;;;18.25;11.65;;;18.00;99.90;;;;;;5041126;28;20116;-64
2022/07/25 02:15:26;;;;;;;17.65;11.57;;;18.00;99.90;;;;;;5028042;28;20052;-64
2022/07/25 02:17:53;;;;;;;17.00;11.50;;;18.00;99.90;;;;;;5051011;28;20107;-64
2022/07/25 02:20:20;;;;;;;13.80;10.15;;;18.00;99.90;;;;;;5048598;28;20111;-64
2022/07/25 02:22:47;;;;;;;14.38;10.77;;;18.10;99.90;;;;;;5043331;28;20056;-64
2022/07/25 02:25:13;;;;;;;16.80;11.52;;;18.00;99.90;;;;;;5054848;28;20098;-64
2022/07/25 02:27:40;;;;;;;15.60;11.23;;;18.00;99.90;;;;;;5054932;28;20394;-64
2022/07/25 02:30:07;;;;;;;14.15;11.15;;;18.10;99.90;;;;;;5051108;28;20508;-64
2022/07/25 02:32:34;;;;;;;14.73;10.40;;;18.00;99.90;;;;;;5046625;28;20489;-64
2022/07/25 02:35:01;;;;;;;18.60;12.00;;;18.00;99.90;;;;;;5054455;28;20485;-64
2022/07/25 02:37:27;;;;;;;16.05;11.07;;;18.00;99.90;;;;;;5054589;28;20052;-64
2022/07/25 02:39:54;;;;;;;16.77;12.00;;;17.90;99.90;;;;;;5050037;28;20045;-64
2022/07/25 02:42:21;;;;;;;17.98;11.93;;;18.00;99.90;;;;;;5046398;28;20045;-64
2022/07/25 02:44:48;;;;;;;20.77;12.65;;;18.00;99.90;;;;;;5054589;28;20045;-64
2022/07/25 02:47:14;;;;;;;18.30;12.50;;;18.00;99.90;;;;;;5049959;28;20072;-65
2022/07/25 02:49:41;;;;;;;20.42;12.85;;;18.00;99.90;;;;;;5042780;28;20116;-64
2022/07/25 02:52:08;;;;;;;18.73;13.02;;;18.00;99.90;;;;;;5054162;28;20056;-64
2022/07/25 02:54:34;;;;;;;18.75;12.75;;;18.00;99.90;;;;;;5054527;28;20102;-65
2022/07/25 02:57:01;;;;;;;19.65;12.85;;;18.00;99.90;;;;;;5048479;28;20486;-65
2022/07/25 02:59:28;;;;;;;19.75;12.52;;;18.00;99.90;;;;;;5049310;28;20520;-64
2022/07/25 03:01:58;;;;;;;18.48;12.13;;;18.00;99.90;;;;;;5054062;28;20125;-64
2022/07/25 03:04:25;;;;;;;22.48;13.68;;;18.00;99.90;;;;;;5070266;22;20040;-61
2022/07/25 03:06:52;;;;;;;;;;;18.00;99.90;;;;;;5071711;28;20098;-61
2022/07/25 03:09:18;;;;;;;19.02;12.90;;;18.00;99.90;;;;;;5068222;28;19929;-61
2022/07/25 03:11:45;;;;;;;17.65;12.48;;;18.00;99.90;;;;;;5036013;28;20490;-61
2022/07/25 03:14:12;;;;;;;18.90;12.13;;;18.00;99.90;;;;;;5053438;28;20517;-61
2022/07/25 03:16:39;;;;;;;18.55;11.98;;;17.90;99.90;;;;;;5042103;28;20060;-61
2022/07/25 03:19:09;;;;;;;16.50;11.13;;;17.90;99.90;;;;;;5053884;28;20037;-61
2022/07/25 03:21:38;;;;;;;21.17;11.75;;;17.70;99.90;;;;;;5053479;28;20045;-61
2022/07/25 03:24:05;;;;;;;17.17;11.45;;;17.60;99.90;;;;;;5047822;28;20053;-61
2022/07/25 03:26:32;;;;;;;;;;;17.50;99.90;;;;;;5049812;28;20041;-61
2022/07/25 03:28:59;;;;;;;18.83;12.55;;;17.50;99.90;;;;;;5053859;28;19921;-61
2022/07/25 03:31:27;;;;;;;18.58;12.48;;;17.40;99.90;;;;;;5050803;28;20099;-61
2022/07/25 03:33:54;;;;;;;19.30;12.85;;;17.40;99.90;;;;;;5043697;28;20406;-61
2022/07/25 03:36:20;;;;;;;24.30;12.20;;;17.50;99.90;;;;;;5052965;28;20041;-61
2022/07/25 03:38:47;;;;;;;20.55;12.95;;;17.50;99.90;;;;;;5052361;28;20044;-61
2022/07/25 03:41:14;;;;;;;17.75;13.35;;;17.50;99.90;;;;;;5046013;28;20410;-61
2022/07/25 03:43:41;;;;;;;22.05;12.50;;;17.50;99.90;;;;;;5044872;28;20049;-61
2022/07/25 03:46:07;;;;;;;17.83;12.05;;;17.50;99.90;;;;;;5033832;28;20045;-61
2022/07/25 03:48:34;;;;;;;20.02;12.13;;;17.50;99.90;;;;;;5051431;28;20462;-60
2022/07/25 03:51:01;;;;;;;20.17;12.82;;;17.50;99.90;;;;;;5048906;28;20041;-61
2022/07/25 03:54:00;;;;;;;19.85;12.35;;;17.60;99.90;;;;;;5052683;28;20041;-60
2022/07/25 03:56:20;;;;;;;18.52;11.88;;;17.60;99.90;;;;;;5053097;28;20053;-61
2022/07/25 03:58:46;;;;;;;19.95;13.30;;;17.60;99.90;;;;;;5047537;28;20133;-61
2022/07/25 04:01:13;;;;;;;19.63;13.18;;;17.60;99.90;;;;;;5049256;28;20032;-61
2022/07/25 04:03:40;;;;;;;20.08;12.70;;;17.60;99.90;;;;;;5052277;28;20466;-61
2022/07/25 04:06:09;;;;;;;19.95;13.02;;;17.70;99.90;;;;;;5050469;28;20049;-61
2022/07/25 04:08:37;;;;;;;21.48;14.35;;;17.80;99.90;;;;;;5040970;28;20049;-61
2022/07/25 04:11:04;;;;;;;19.70;13.18;;;17.80;99.90;;;;;;5051650;28;20037;-61
2022/07/25 04:13:31;;;;;;;22.00;13.52;;;17.90;99.90;;;;;;5052935;28;20045;-62
2022/07/25 04:15:57;;;;;;;21.88;14.07;;;17.90;99.90;;;;;;5049915;28;20052;-62
2022/07/25 04:18:24;;;;;;;18.65;12.98;;;17.90;99.90;;;;;;5044393;28;20045;-62
2022/07/25 04:20:54;;;;;;;18.20;12.95;;;17.90;99.90;;;;;;5052386;28;20041;-61
2022/07/25 04:23:21;;;;;;;19.05;12.82;;;18.00;99.90;;;;;;5048922;28;20045;-62
2022/07/25 04:25:47;;;;;;;21.88;14.43;;;18.00;99.90;;;;;;5045988;28;20040;-61
2022/07/25 04:28:14;;;;;;;17.88;12.27;;;18.00;99.90;;;;;;5031547;28;20501;-61
2022/07/25 04:30:44;;;;;;;19.85;12.77;;;18.00;99.90;;;;;;5051761;28;20049;-61
2022/07/25 04:33:11;;;;;;;23.83;13.07;;;18.10;99.90;;;;;;5050136;28;20056;-62
2022/07/25 04:35:39;;;;;;;21.48;12.82;;;18.20;99.90;;;;;;5031393;28;20052;-62
2022/07/25 04:38:05;;;;;;;21.23;13.00;;;18.20;99.90;;;;;;5049384;28;20394;-62
2022/07/25 04:40:38;;;;;;;20.30;13.73;;;18.30;99.90;;;;;;5050987;28;20478;-62
2022/07/25 04:43:07;;;;;;;18.95;13.23;;;18.40;99.90;;;;;;5048980;28;20060;-61
2022/07/25 04:45:34;;;;;;;21.58;13.45;;;18.40;99.90;;;;;;5051702;28;20033;-62
2022/07/25 04:48:01;;;;;;;20.65;13.25;;;18.50;99.90;;;;;;5051637;28;20037;-61
2022/07/25 04:50:29;;;;;;;19.45;13.07;;;18.50;99.90;;;;;;5033299;28;20041;-61
2022/07/25 04:52:55;;;;;;;19.52;12.88;;;18.60;99.90;;;;;;5049101;28;20518;-61
2022/07/25 04:55:22;;;;;;;19.40;13.70;;;18.60;99.90;;;;;;5052101;28;20395;-61
2022/07/25 04:57:49;;;;;;;20.60;13.32;;;18.70;99.90;;;;;;5051322;28;21317;-61
2022/07/25 05:00:16;;;;;;;24.83;16.73;;;18.70;99.90;;;;;;5049151;28;20048;-61
2022/07/25 05:02:43;;;;;;;24.05;14.07;;;18.70;99.90;;;;;;5034928;28;20042;-61
2022/07/25 05:05:10;;;;;;;19.88;13.15;;;18.80;99.90;;;;;;5031601;28;20137;-61
2022/07/25 05:07:48;;;;;;;18.42;13.45;;;18.80;99.90;;;;;;5033713;28;20040;-62
2022/07/25 05:10:16;;;;;;;20.98;13.70;;;18.90;99.90;;;;;;5042949;28;20055;-61
2022/07/25 05:12:42;;;;;;;21.17;13.43;;;18.90;99.90;;;;;;5051825;28;20059;-61
2022/07/25 05:15:10;;;;;;;21.35;13.75;;;19.00;99.90;;;;;;5051816;28;20049;-61
2022/07/25 05:17:36;;;;;;;;;;;19.00;99.90;;;;;;5048405;28;20371;-62
2022/07/25 05:20:04;;;;;;;20.85;12.70;;;19.10;99.90;;;;;;5042739;28;19932;-61
2022/07/25 05:22:31;;;;;;;22.83;13.38;;;19.10;99.90;;;;;;5051752;28;20079;-61
2022/07/25 05:25:01;;;;;;;21.30;14.05;;;19.10;99.90;;;;;;5051611;28;20045;-61
2022/07/25 05:27:28;;;;;;;18.88;13.43;;;19.20;99.90;;;;;;5041967;28;20052;-61
2022/07/25 05:29:54;;;;;;;22.33;14.20;;;19.30;99.90;;;;;;5039410;28;20046;-61
2022/07/25 05:32:21;;;;;;;18.30;13.50;;;19.30;99.90;;;;;;5031356;28;20061;-61
2022/07/25 05:34:48;;;;;;;20.92;13.35;;;19.40;99.90;;;;;;5030722;28;20041;-61
2022/07/25 05:37:15;;;;;;;20.13;13.57;;;19.40;99.90;;;;;;5022856;28;20367;-61
2022/07/25 05:39:42;;;;;;;19.50;13.18;;;19.50;99.90;;;;;;5030705;28;20039;-62
2022/07/25 05:42:09;;;;;;;18.15;13.25;;;19.60;99.90;;;;;;5033048;28;20049;-61
2022/07/25 05:44:36;;;;;;;24.23;14.05;;;19.60;99.90;;;;;;5051295;28;20044;-62
2022/07/25 05:47:02;;;;;;;21.60;13.50;;;19.70;99.90;;;;;;5044064;28;20033;-61
2022/07/25 05:49:29;;;;;;;22.30;14.00;;;19.70;99.90;;;;;;5046291;28;20083;-61
2022/07/25 05:51:56;;;;;;;21.88;13.93;;;19.80;99.90;;;;;;5051190;28;20041;-61
2022/07/25 05:54:23;;;;;;;22.33;12.98;;;19.90;99.90;;;;;;5051363;28;20513;-61
2022/07/25 05:56:53;;;;;;;17.98;11.95;;;19.90;99.90;;;;;;5042436;28;20040;-60
2022/07/25 05:59:19;;;;;;;19.65;13.02;;;20.00;99.90;;;;;;5048529;28;20045;-61
2022/07/25 06:01:46;;;;;;;19.17;13.70;;;20.00;99.90;;;;;;5054852;28;20056;-61
2022/07/25 06:04:13;;;;;;;17.95;12.68;;;20.10;99.90;;;;;;5029141;28;20041;-61
2022/07/25 06:06:40;;;;;;;17.48;13.00;;;20.10;99.90;;;;;;5047025;28;20044;-61
2022/07/25 06:09:07;;;;;;;19.63;13.43;;;20.10;99.90;;;;;;5055237;28;20053;-61
2022/07/25 06:11:34;;;;;;;22.00;13.02;;;20.20;99.90;;;;;;5053710;28;20051;-61
2022/07/25 06:14:16;;;;;;;18.63;13.18;;;20.30;99.90;;;;;;5048378;28;20080;-61
2022/07/25 06:16:43;;;;;;;17.88;11.68;;;20.40;99.90;;;;;;5055181;28;20095;-61
2022/07/25 06:19:10;;;;;;;19.33;13.50;;;20.50;99.90;;;;;;5053415;28;20136;-61
2022/07/25 06:21:37;;;;;;;19.70;13.30;;;20.60;99.90;;;;;;5042792;28;20033;-61
2022/07/25 06:24:04;;;;;;;20.52;13.88;;;20.70;99.90;;;;;;5054949;28;20041;-61
2022/07/25 06:26:31;;;;;;;;;;;20.80;99.90;;;;;;5055264;28;20482;-61
2022/07/25 06:28:58;;;;;;;18.48;12.95;;;20.80;99.90;;;;;;5051026;28;20390;-61
2022/07/25 06:31:25;;;;;;;21.65;14.35;;;20.90;99.90;;;;;;5046062;28;20041;-61
2022/07/25 06:33:51;;;;;;;22.17;13.65;;;21.00;99.90;;;;;;5054605;28;20048;-61
2022/07/25 06:36:18;;;;;;;18.30;13.50;;;21.10;99.90;;;;;;5054951;28;20383;-61
2022/07/25 06:38:45;;;;;;;18.27;13.30;;;21.20;99.90;;;;;;5046482;28;20049;-61
2022/07/25 06:41:15;;;;;;;23.10;13.65;;;21.30;99.90;;;;;;5045877;28;20033;-61
2022/07/25 06:43:42;;;;;;;21.70;13.13;;;21.50;99.90;;;;;;5054673;28;20048;-61
2022/07/25 06:46:09;;;;;;;17.25;12.65;;;21.60;99.90;;;;;;5051669;28;20040;-62
2022/07/25 06:48:35;;;;;;;18.77;12.70;;;21.70;99.90;;;;;;5042625;28;20056;-62
2022/07/25 06:51:03;;;;;;;21.90;13.20;;;21.80;99.90;;;;;;5053858;28;20045;-62
2022/07/25 06:53:30;;;;;;;17.15;12.45;;;21.90;99.90;;;;;;5054357;28;20048;-62
2022/07/25 06:55:57;;;;;;;16.27;12.43;;;22.10;99.90;;;;;;5050067;28;20053;-62
2022/07/25 06:58:24;;;;;;;18.77;12.73;;;22.20;99.90;;;;;;5046093;28;20433;-62
2022/07/25 07:00:51;;;;;;;15.77;12.27;;;22.40;99.90;;;;;;5053939;28;20041;-61
2022/07/25 07:03:18;;;;;;;21.52;13.38;;;22.50;99.90;;;;;;5054142;28;20045;-62
2022/07/25 07:05:45;;;;;;;15.18;12.13;;;22.60;99.90;;;;;;5046581;28;20041;-61
2022/07/25 07:08:11;;;;;;;19.55;12.95;;;22.90;99.90;;;;;;5045726;28;20041;-61
2022/07/25 07:10:39;;;;;;;15.30;11.98;;;23.00;99.90;;;;;;5053774;28;20048;-62
2022/07/25 07:13:11;;;;;;;18.02;12.40;;;23.10;99.90;;;;;;5035398;28;20049;-62
2022/07/25 07:15:42;;;;;;;24.67;12.57;;;23.30;99.90;;;;;;5042123;28;20120;-62
2022/07/25 07:18:09;;;;;;;18.73;12.70;;;23.40;99.90;;;;;;5033726;28;20041;-62
2022/07/25 07:20:35;;;;;;;19.40;12.57;;;23.60;99.90;;;;;;5033543;28;20044;-62
2022/07/25 07:23:02;;;;;;;15.65;11.75;;;23.70;99.90;;;;;;5042931;28;20433;-61
2022/07/25 07:25:30;;;;;;;14.40;11.95;;;23.80;99.90;;;;;;5048979;28;20505;-62
2022/07/25 07:27:57;;;;;;;16.88;12.30;;;23.90;99.90;;;;;;5053687;28;20056;-62
2022/07/25 07:30:24;;;;;;;19.08;13.20;;;24.00;99.90;;;;;;5052879;28;20045;-62
2022/07/25 07:33:11;;;;;;;17.33;12.70;;;23.90;99.90;;;;;;5041946;28;20042;-62
2022/07/25 07:35:38;;;;;;;15.07;11.55;;;24.00;99.90;;;;;;5033693;28;20049;-62
2022/07/25 07:38:05;;;;;;;18.10;13.32;;;24.20;99.90;;;;;;5033794;28;20449;-62
2022/07/25 07:40:32;;;;;;;18.48;12.45;;;24.40;99.90;;;;;;5033893;28;20030;-62
2022/07/25 07:43:01;;;;;;;18.38;12.70;;;24.60;99.90;;;;;;5044667;28;20414;-62
2022/07/25 07:45:28;;;;;;;16.67;12.85;;;24.70;99.90;;;;;;5053142;28;20052;-62
2022/07/25 07:47:55;;;;;;;16.15;12.27;;;24.70;99.90;;;;;;5053503;28;20052;-62
2022/07/25 07:50:26;;;;;;;18.23;12.65;;;25.00;99.90;;;;;;5028710;28;20480;-62
2022/07/25 07:52:55;;;;;;;16.30;11.88;;;25.00;99.90;;;;;;5051885;28;20049;-62
2022/07/25 07:58:08;;;;;;;17.13;12.10;;;25.30;99.90;;;;;;5045103;28;20041;-62
2022/07/25 08:00:38;;;;;;;17.92;12.60;;;25.40;99.90;;;;;;5044296;28;20401;-62
2022/07/25 08:03:07;;;;;;;19.67;12.05;;;25.50;99.90;;;;;;5053274;28;20416;-62
2022/07/25 08:05:41;;;;;;;16.65;12.80;;;25.50;99.90;;;;;;5047914;28;20037;-62
2022/07/25 08:08:11;;;;;;;20.17;12.82;;;25.60;99.90;;;;;;5044554;28;20039;-61
2022/07/25 08:10:44;;;;;;;15.35;12.35;;;25.70;99.90;;;;;;5052585;28;20045;-61
2022/07/25 08:13:16;;;;;;;17.75;13.85;;;26.00;99.90;;;;;;5032084;28;20064;-61
2022/07/25 08:15:45;;;;;;;16.65;13.10;;;26.20;99.90;;;;;;5041565;28;20073;-61
2022/07/25 08:18:13;;;;;;;16.17;13.77;;;26.40;99.90;;;;;;5052760;28;20068;-61
2022/07/25 08:20:44;;;;;;;17.95;13.75;;;26.60;99.90;;;;;;5034964;28;20052;-61
2022/07/25 08:23:12;;;;;;;19.75;13.77;;;26.60;99.90;;;;;;5046572;28;20033;-62
2022/07/25 08:25:40;;;;;;;18.95;12.18;;;26.70;99.90;;;;;;5044365;28;20048;-62
2022/07/25 08:28:07;;;;;;;14.63;12.30;;;26.90;99.90;;;;;;5052748;28;20056;-61
2022/07/25 08:30:34;;;;;;;;;;;27.10;99.90;;;;;;5048431;28;20433;-61
2022/07/25 08:33:04;;;;;;;19.63;13.10;;;27.20;99.90;;;;;;5043657;28;19995;-61
2022/07/25 08:35:32;;;;;;;19.33;13.82;;;27.20;99.90;;;;;;5034664;28;20497;-61
2022/07/25 08:38:00;;;;;;;17.80;13.35;;;27.30;99.90;;;;;;5034759;28;20044;-61
2022/07/25 08:40:28;;;;;;;15.80;12.98;;;27.40;99.90;;;;;;5043495;28;20513;-61
2022/07/25 08:42:57;;;;;;;17.38;13.10;;;27.40;99.90;;;;;;5051064;28;20049;-62
2022/07/25 08:45:25;;;;;;;19.08;11.93;;;27.60;99.90;;;;;;5052296;28;20033;-62
2022/07/25 08:47:53;;;;;;;16.40;13.32;;;27.70;99.90;;;;;;5051480;28;20417;-61
2022/07/25 08:50:26;;;;;;;18.48;13.30;;;27.80;99.90;;;;;;5040575;28;20045;-61
2022/07/25 08:52:54;;;;;;;19.27;13.63;;;27.80;99.90;;;;;;5050737;28;20060;-61
2022/07/25 08:55:43;;;;;;;16.60;12.95;;;27.60;99.90;;;;;;5052111;28;20052;-61
2022/07/25 08:58:14;;;;;;;17.27;13.57;;;27.70;99.90;;;;;;5045389;28;20119;-61
2022/07/25 09:00:42;;;;;;;16.67;13.43;;;28.00;99.90;;;;;;5043335;28;20045;-61
2022/07/25 09:03:09;;;;;;;17.52;12.80;;;28.20;99.90;;;;;;5052047;28;20044;-62
2022/07/25 09:05:38;;;;;;;16.08;12.60;;;28.40;99.90;;;;;;5046643;22;20065;-64
2022/07/25 09:08:16;;;;;;;14.95;12.57;;;28.40;99.90;;;;;;5027412;28;20061;-63
2022/07/25 09:10:48;;;;;;;15.45;12.23;;;28.60;99.90;;;;;;5020182;28;20045;-63
2022/07/25 09:13:16;;;;;;;15.80;12.98;;;28.80;99.90;;;;;;5031966;28;20053;-63
2022/07/25 09:15:52;;;;;;;16.48;12.85;;;28.80;99.90;;;;;;5031481;28;20041;-63
2022/07/25 09:18:24;;;;;;;21.63;13.90;;;29.00;99.90;;;;;;5036716;28;20045;-64
2022/07/25 09:20:53;;;;;;;16.42;12.40;;;28.80;99.90;;;;;;5031389;28;20073;-63
2022/07/25 09:23:37;;;;;;;17.73;13.15;;;29.00;99.90;;;;;;5031149;28;20502;-63
2022/07/25 09:26:11;;;;;;;18.02;13.05;;;29.10;99.90;;;;;;5031420;28;20040;-64
2022/07/25 09:28:39;;;;;;;15.70;12.23;;;29.40;99.90;;;;;;5031747;28;20057;-63
2022/07/25 09:31:06;;;;;;;18.58;13.75;;;29.50;99.80;;;;;;5030712;28;20053;-63
2022/07/25 09:33:33;;;;;;;;;;;29.40;99.90;;;;;;5031153;28;20107;-63
2022/07/25 09:36:09;;;;;;;15.40;13.07;;;29.20;99.90;;;;;;5031510;28;19925;-63
2022/07/25 09:38:36;;;;;;;15.05;12.30;;;29.30;99.90;;;;;;5030508;28;20045;-63
2022/07/25 09:41:03;;;;;;;14.85;12.32;;;29.50;99.90;;;;;;5029179;28;20038;-64
2022/07/25 09:43:36;;;;;;;;;;;29.90;99.90;;;;;;5030617;28;20099;-64
2022/07/25 09:46:03;;;;;;;15.40;12.73;;;29.90;99.50;;;;;;5031541;28;19921;-63
2022/07/25 09:48:31;;;;;;;17.05;12.75;;;30.10;99.90;;;;;;5031160;28;20141;-63
2022/07/25 09:50:58;;;;;;;15.85;13.13;;;30.10;99.90;;;;;;5025763;28;20060;-63
2022/07/25 09:53:25;;;;;;;16.20;12.90;;;30.10;99.40;;;;;;5031516;28;20041;-63
2022/07/25 09:55:55;;;;;;;14.43;12.82;;;30.20;99.10;;;;;;5031418;28;20041;-64
2022/07/25 09:58:23;;;;;;;16.02;12.90;;;30.30;99.20;;;;;;5024065;28;20037;-63
2022/07/25 10:00:55;;;;;;;15.27;13.02;;;30.20;99.40;;;;;;5030938;28;20124;-63
2022/07/25 10:03:43;;;;;;;18.15;13.25;;;30.30;99.50;;;;;;5031492;28;20037;-64
2022/07/25 10:06:38;;;;;;;15.43;13.00;;;30.40;99.90;;;;;;5043336;28;20048;-64
2022/07/25 10:09:12;;;;;;;18.38;12.52;;;30.40;99.20;;;;;;5050598;28;20048;-64
2022/07/25 10:11:39;;;;;;;15.68;13.07;;;30.80;99.90;;;;;;5050630;28;20060;-63
2022/07/25 10:14:11;;;;;;;17.23;12.77;;;30.90;99.00;;;;;;5051057;28;20045;-63
2022/07/25 10:16:45;;;;;;;18.92;12.85;;;30.90;99.90;;;;;;5050506;28;20040;-63
2022/07/25 10:19:12;;;;;;;15.07;12.95;;;30.70;99.90;;;;;;5031263;28;20131;-64
2022/07/25 10:21:39;;;;;;;14.20;12.68;;;30.50;99.70;;;;;;5030707;28;20046;-63
2022/07/25 10:24:08;;;;;;;18.40;13.35;;;30.40;99.90;;;;;;5031111;28;20041;-63
2022/07/25 10:26:38;;;;;;;16.58;13.30;;;30.50;99.90;;;;;;5049150;28;20094;-63
2022/07/25 10:29:10;;;;;;;15.32;13.70;;;30.60;99.90;;;;;;5031046;28;20049;-63
2022/07/25 10:31:41;;;;;;;14.48;12.98;;;30.60;99.80;;;;;;5030728;28;20125;-63
2022/07/25 10:34:30;;;;;;;15.85;13.35;;;30.70;99.70;;;;;;5042889;28;20076;-64
2022/07/25 10:37:17;;;;;;;16.40;13.48;;;30.80;99.90;;;;;;5050668;28;20049;-64
2022/07/25 10:39:45;;;;;;;17.77;13.63;;;30.80;99.50;;;;;;5050803;28;20045;-63
2022/07/25 10:42:19;;;;;;;15.18;13.63;;;30.80;99.90;;;;;;5049917;28;20037;-63
2022/07/25 10:45:08;;;;;;;15.27;13.13;;;30.90;99.30;;;;;;5051783;28;20068;-63
2022/07/25 10:47:38;;;;;;;17.15;13.65;;;31.00;99.40;;;;;;5054959;28;20048;-63
2022/07/25 10:50:10;;;;;;;14.75;12.73;;;31.20;99.40;;;;;;5053481;28;20493;-64
2022/07/25 10:52:58;;;;;;;18.58;13.63;;;31.40;98.90;;;;;;5054397;28;20102;-63
2022/07/25 10:55:27;;;;;;;19.38;13.80;;;31.60;98.50;;;;;;5054411;28;20068;-63
2022/07/25 10:58:03;;;;;;;18.67;12.98;;;31.90;98.40;;;;;;5054433;28;20067;-64
2022/07/25 11:00:44;;;;;;;16.63;14.00;;;32.10;97.80;;;;;;5051092;28;20079;-64
2022/07/25 11:03:11;;;;;;;17.52;12.38;;;32.20;97.90;;;;;;5054156;28;20052;-64
2022/07/25 11:05:47;;;;;;;16.83;13.48;;;32.30;98.60;;;;;;5054080;28;20560;-64
2022/07/25 11:08:15;;;;;;;18.50;14.18;;;32.30;97.40;;;;;;5053722;28;20048;-63
2022/07/25 11:10:52;;;;;;;15.60;12.88;;;32.10;96.20;;;;;;5053626;28;20508;-64
2022/07/25 11:13:19;;;;;;;15.25;12.77;;;31.90;97.80;;;;;;5054143;28;20428;-64
2022/07/25 11:15:45;;;;;;;16.80;12.93;;;32.10;98.40;;;;;;5053787;28;20041;-63
2022/07/25 11:18:12;;;;;;;13.93;12.45;;;32.20;98.00;;;;;;5049686;28;20040;-63
2022/07/25 11:20:39;;;;;;;15.60;13.30;;;32.40;96.50;;;;;;5053438;28;20632;-63
2022/07/25 11:23:06;;;;;;;17.02;13.75;;;32.40;96.20;;;;;;5053984;28;20374;-64
2022/07/25 11:25:32;;;;;;;16.70;12.77;;;32.70;96.60;;;;;;5053690;28;20056;-64
2022/07/25 11:28:00;;;;;;;14.48;12.43;;;32.80;96.00;;;;;;5049498;28;20053;-64
2022/07/25 11:30:28;;;;;;;14.05;12.50;;;32.90;96.10;;;;;;5053512;28;20037;-64
2022/07/25 11:32:57;;;;;;;13.35;11.88;;;33.00;94.90;;;;;;5053760;28;20045;-63
2022/07/25 11:35:27;;;;;;;14.07;10.95;;;33.20;93.70;;;;;;5053034;28;20524;-64
2022/07/25 11:37:54;;;;;;;12.68;10.65;;;33.30;93.60;;;;;;5053348;28;20669;-63
2022/07/25 11:40:22;;;;;;;12.18;10.38;;;33.40;91.70;;;;;;5052043;28;20045;-64
2022/07/25 11:42:51;;;;;;;14.60;11.40;;;33.50;92.60;;;;;;5052959;28;20488;-64
2022/07/25 11:45:23;;;;;;;12.98;11.35;;;33.50;92.00;;;;;;5053315;28;20041;-64
2022/07/25 11:48:10;;;;;;;12.55;11.15;;;33.60;92.30;;;;;;5053894;28;20048;-63
2022/07/25 11:50:43;;;;;;;13.45;10.98;;;33.70;92.80;;;;;;5052624;28;20056;-63
2022/07/25 11:53:17;;;;;;;13.88;10.80;;;33.60;91.80;;;;;;5045661;28;20062;-64
2022/07/25 11:55:44;;;;;;;15.90;10.95;;;33.60;91.70;;;;;;5051276;28;20059;-64
2022/07/25 11:58:13;;;;;;;12.00;10.02;;;33.60;92.10;;;;;;5053178;28;20044;-64
2022/07/25 12:00:42;;;;;;;11.68;10.07;;;33.60;90.80;;;;;;5052266;28;20037;-64
2022/07/25 12:03:22;;;;;;;11.75;10.43;;;33.60;91.30;;;;;;5053007;28;20519;-64
2022/07/25 12:05:49;;;;;;;13.80;10.30;;;33.70;92.10;;;;;;5052983;28;20045;-64
2022/07/25 12:08:18;;;;;;;11.80;9.65;;;33.80;91.70;;;;;;5053036;28;20040;-64
2022/07/25 12:10:47;;;;;;;8.90;8.00;;;33.80;89.90;;;;;;5046957;28;20049;-63
2022/07/25 12:13:25;;;;;;;10.52;8.45;;;33.80;84.80;;;;;;5052807;28;20049;-63
2022/07/25 12:15:52;;;;;;;7.85;7.15;;;33.80;82.70;;;;;;5052861;28;20045;-64
2022/07/25 12:18:19;;;;;;;10.57;8.98;;;33.90;81.70;;;;;;5051909;28;20040;-64
2022/07/25 12:20:46;;;;;;;11.00;9.23;;;34.00;83.70;;;;;;5052304;28;20041;-64
2022/07/25 12:23:13;;;;;;;12.02;8.77;;;34.10;84.80;;;;;;5052805;28;20053;-64
2022/07/25 12:25:43;;;;;;;9.77;8.77;;;34.20;83.80;;;;;;5052449;28;20055;-64
2022/07/25 12:28:10;;;;;;;12.50;9.38;;;34.20;81.90;;;;;;5052091;28;20039;-64
2022/07/25 12:30:39;;;;;;;10.38;9.05;;;34.20;82.60;;;;;;5052197;28;20048;-64
2022/07/25 12:33:07;;;;;;;10.82;9.20;;;34.10;82.10;;;;;;5052524;28;20072;-64
2022/07/25 12:35:36;;;;;;;11.30;9.30;;;34.10;85.80;;;;;;5052271;28;20060;-64
2022/07/25 12:38:03;;;;;;;11.27;9.18;;;34.10;83.90;;;;;;5051961;28;20045;-64
2022/07/25 12:40:30;;;;;;;11.07;9.27;;;34.20;84.50;;;;;;5051908;28;20045;-64
2022/07/25 12:42:57;;;;;;;11.38;9.70;;;34.30;84.60;;;;;;5052326;28;20083;-64